sensor_id;sensor_type;location;lat;lon;timestamp;P1;durP1;ratioP1;P2;durP2;ratioP2
20928;SDS011;21895;47.072;15.132;2022-09-02T00:01:28;9.88;;;2.40;;
20928;SDS011;21895;47.072;15.132;2022-09-02T00:04:04;4.07;;;2.42;;
20928;SDS011;21895;47.072;15.132;2022-09-02T00:06:41;5.12;;;2.30;;
20928;SDS011;21895;47.072;15.132;2022-09-02T00:09:10;4.07;;;2.28;;
20928;SDS011;21895;47.072;15.132;2022-09-02T00:11:41;4.18;;;2.17;;
20928;SDS011;21895;47.072;15.132;2022-09-02T00:14:11;9.97;;;2.50;;
20928;SDS011;21895;47.072;15.132;2022-09-02T00:16:47;6.47;;;2.50;;
20928;SDS011;21895;47.072;15.132;2022-09-02T00:19:18;3.83;;;2.78;;
20928;SDS011;21895;47.072;15.132;2022-09-02T00:21:49;7.25;;;2.55;;
20928;SDS011;21895;47.072;15.132;2022-09-02T00:24:17;4.32;;;2.50;;
20928;SDS011;21895;47.072;15.132;2022-09-02T00:26:44;9.43;;;2.60;;
20928;SDS011;21895;47.072;15.132;2022-09-02T00:29:11;5.10;;;2.53;;
20928;SDS011;21895;47.072;15.132;2022-09-02T00:31:41;2.87;;;2.43;;
20928;SDS011;21895;47.072;15.132;2022-09-02T00:34:10;5.90;;;2.50;;
20928;SDS011;21895;47.072;15.132;2022-09-02T00:36:38;3.25;;;2.50;;
20928;SDS011;21895;47.072;15.132;2022-09-02T00:39:05;3.97;;;2.67;;
20928;SDS011;21895;47.072;15.132;2022-09-02T00:41:33;11.47;;;2.47;;
20928;SDS011;21895;47.072;15.132;2022-09-02T00:44:04;3.47;;;2.12;;
20928;SDS011;21895;47.072;15.132;2022-09-02T00:46:37;9.32;;;2.40;;
20928;SDS011;21895;47.072;15.132;2022-09-02T00:49:15;3.42;;;2.20;;
20928;SDS011;21895;47.072;15.132;2022-09-02T00:51:51;9.27;;;2.23;;
20928;SDS011;21895;47.072;15.132;2022-09-02T00:54:34;7.25;;;2.35;;
20928;SDS011;21895;47.072;15.132;2022-09-02T00:57:07;5.35;;;2.30;;
20928;SDS011;21895;47.072;15.132;2022-09-02T00:59:45;4.82;;;2.20;;
20928;SDS011;21895;47.072;15.132;2022-09-02T01:03:11;6.70;;;2.33;;
20928;SDS011;21895;47.072;15.132;2022-09-02T01:05:43;6.37;;;2.20;;
20928;SDS011;21895;47.072;15.132;2022-09-02T01:08:14;5.00;;;2.62;;
20928;SDS011;21895;47.072;15.132;2022-09-02T01:10:49;9.90;;;2.60;;
20928;SDS011;21895;47.072;15.132;2022-09-02T01:13:21;2.45;;;2.20;;
20928;SDS011;21895;47.072;15.132;2022-09-02T01:15:52;2.90;;;2.55;;
20928;SDS011;21895;47.072;15.132;2022-09-02T01:18:38;7.28;;;2.50;;
20928;SDS011;21895;47.072;15.132;2022-09-02T01:21:07;4.95;;;2.55;;
20928;SDS011;21895;47.072;15.132;2022-09-02T01:23:35;9.68;;;2.80;;
20928;SDS011;21895;47.072;15.132;2022-09-02T01:26:03;3.05;;;2.17;;
20928;SDS011;21895;47.072;15.132;2022-09-02T01:28:32;5.07;;;2.58;;
20928;SDS011;21895;47.072;15.132;2022-09-02T01:30:59;6.50;;;2.72;;
20928;SDS011;21895;47.072;15.132;2022-09-02T01:33:26;6.80;;;2.65;;
20928;SDS011;21895;47.072;15.132;2022-09-02T01:35:55;6.75;;;2.80;;
20928;SDS011;21895;47.072;15.132;2022-09-02T01:38:22;5.90;;;2.30;;
20928;SDS011;21895;47.072;15.132;2022-09-02T01:40:50;9.57;;;2.80;;
20928;SDS011;21895;47.072;15.132;2022-09-02T01:43:18;8.77;;;2.53;;
20928;SDS011;21895;47.072;15.132;2022-09-02T01:45:51;2.53;;;2.10;;
20928;SDS011;21895;47.072;15.132;2022-09-02T01:48:21;3.17;;;2.25;;
20928;SDS011;21895;47.072;15.132;2022-09-02T01:50:49;6.23;;;2.40;;
20928;SDS011;21895;47.072;15.132;2022-09-02T01:53:20;3.07;;;2.27;;
20928;SDS011;21895;47.072;15.132;2022-09-02T01:55:47;4.25;;;2.65;;
20928;SDS011;21895;47.072;15.132;2022-09-02T01:58:14;6.97;;;2.47;;
20928;SDS011;21895;47.072;15.132;2022-09-02T02:00:40;4.43;;;2.37;;
20928;SDS011;21895;47.072;15.132;2022-09-02T02:03:07;6.60;;;2.53;;
20928;SDS011;21895;47.072;15.132;2022-09-02T02:05:33;6.68;;;2.30;;
20928;SDS011;21895;47.072;15.132;2022-09-02T02:08:00;3.37;;;2.40;;
20928;SDS011;21895;47.072;15.132;2022-09-02T02:10:28;4.05;;;2.90;;
20928;SDS011;21895;47.072;15.132;2022-09-02T02:12:55;8.05;;;2.55;;
20928;SDS011;21895;47.072;15.132;2022-09-02T02:15:22;3.67;;;2.87;;
20928;SDS011;21895;47.072;15.132;2022-09-02T02:17:49;3.78;;;2.53;;
20928;SDS011;21895;47.072;15.132;2022-09-02T02:20:16;5.22;;;2.37;;
20928;SDS011;21895;47.072;15.132;2022-09-02T02:22:46;3.50;;;2.87;;
20928;SDS011;21895;47.072;15.132;2022-09-02T02:25:13;5.12;;;2.60;;
20928;SDS011;21895;47.072;15.132;2022-09-02T02:27:42;4.35;;;2.50;;
20928;SDS011;21895;47.072;15.132;2022-09-02T02:30:10;4.90;;;2.55;;
20928;SDS011;21895;47.072;15.132;2022-09-02T02:32:39;6.32;;;2.60;;
20928;SDS011;21895;47.072;15.132;2022-09-02T02:35:06;5.25;;;2.58;;
20928;SDS011;21895;47.072;15.132;2022-09-02T02:37:35;3.75;;;2.60;;
20928;SDS011;21895;47.072;15.132;2022-09-02T02:40:03;7.32;;;2.25;;
20928;SDS011;21895;47.072;15.132;2022-09-02T02:42:32;6.18;;;2.50;;
20928;SDS011;21895;47.072;15.132;2022-09-02T02:45:00;3.65;;;2.60;;
20928;SDS011;21895;47.072;15.132;2022-09-02T02:47:27;8.40;;;2.40;;
20928;SDS011;21895;47.072;15.132;2022-09-02T02:49:53;2.37;;;2.17;;
20928;SDS011;21895;47.072;15.132;2022-09-02T02:52:20;4.77;;;2.47;;
20928;SDS011;21895;47.072;15.132;2022-09-02T02:54:46;5.75;;;2.40;;
20928;SDS011;21895;47.072;15.132;2022-09-02T02:57:13;4.87;;;2.63;;
20928;SDS011;21895;47.072;15.132;2022-09-02T02:59:39;6.93;;;2.62;;
20928;SDS011;21895;47.072;15.132;2022-09-02T03:02:06;4.70;;;2.20;;
20928;SDS011;21895;47.072;15.132;2022-09-02T03:04:33;4.18;;;2.55;;
20928;SDS011;21895;47.072;15.132;2022-09-02T03:07:00;5.82;;;2.47;;
20928;SDS011;21895;47.072;15.132;2022-09-02T03:09:27;3.97;;;2.50;;
20928;SDS011;21895;47.072;15.132;2022-09-02T03:11:54;3.97;;;2.30;;
20928;SDS011;21895;47.072;15.132;2022-09-02T03:14:20;4.75;;;2.20;;
20928;SDS011;21895;47.072;15.132;2022-09-02T03:16:47;8.25;;;2.62;;
20928;SDS011;21895;47.072;15.132;2022-09-02T03:19:13;2.87;;;2.33;;
20928;SDS011;21895;47.072;15.132;2022-09-02T03:21:41;12.33;;;3.00;;
20928;SDS011;21895;47.072;15.132;2022-09-02T03:24:08;7.53;;;2.70;;
20928;SDS011;21895;47.072;15.132;2022-09-02T03:26:37;5.68;;;2.65;;
20928;SDS011;21895;47.072;15.132;2022-09-02T03:29:06;6.60;;;2.50;;
20928;SDS011;21895;47.072;15.132;2022-09-02T03:31:33;4.75;;;2.92;;
20928;SDS011;21895;47.072;15.132;2022-09-02T03:34:00;3.65;;;2.70;;
20928;SDS011;21895;47.072;15.132;2022-09-02T03:36:28;4.17;;;3.00;;
20928;SDS011;21895;47.072;15.132;2022-09-02T03:39:04;3.60;;;2.40;;
20928;SDS011;21895;47.072;15.132;2022-09-02T03:41:35;4.80;;;2.73;;
20928;SDS011;21895;47.072;15.132;2022-09-02T03:44:02;3.57;;;2.60;;
20928;SDS011;21895;47.072;15.132;2022-09-02T03:46:29;8.23;;;2.67;;
20928;SDS011;21895;47.072;15.132;2022-09-02T03:48:56;9.53;;;3.10;;
20928;SDS011;21895;47.072;15.132;2022-09-02T03:51:23;4.90;;;2.60;;
20928;SDS011;21895;47.072;15.132;2022-09-02T03:53:50;6.00;;;2.42;;
20928;SDS011;21895;47.072;15.132;2022-09-02T03:56:19;12.20;;;2.77;;
20928;SDS011;21895;47.072;15.132;2022-09-02T03:58:46;11.73;;;2.93;;
20928;SDS011;21895;47.072;15.132;2022-09-02T04:01:15;4.77;;;2.57;;
20928;SDS011;21895;47.072;15.132;2022-09-02T04:03:48;9.07;;;2.60;;
20928;SDS011;21895;47.072;15.132;2022-09-02T04:06:17;13.17;;;2.90;;
20928;SDS011;21895;47.072;15.132;2022-09-02T04:08:46;4.10;;;2.80;;
20928;SDS011;21895;47.072;15.132;2022-09-02T04:11:15;3.23;;;2.57;;
20928;SDS011;21895;47.072;15.132;2022-09-02T04:13:45;4.57;;;2.70;;
20928;SDS011;21895;47.072;15.132;2022-09-02T04:16:15;6.43;;;2.70;;
20928;SDS011;21895;47.072;15.132;2022-09-02T04:18:46;3.53;;;3.23;;
20928;SDS011;21895;47.072;15.132;2022-09-02T04:21:12;11.07;;;3.07;;
20928;SDS011;21895;47.072;15.132;2022-09-02T04:23:40;9.73;;;3.10;;
20928;SDS011;21895;47.072;15.132;2022-09-02T04:26:09;6.33;;;3.00;;
20928;SDS011;21895;47.072;15.132;2022-09-02T04:28:40;5.43;;;2.87;;
20928;SDS011;21895;47.072;15.132;2022-09-02T04:31:08;7.27;;;2.63;;
20928;SDS011;21895;47.072;15.132;2022-09-02T04:33:38;5.83;;;2.60;;
20928;SDS011;21895;47.072;15.132;2022-09-02T04:36:06;2.90;;;2.60;;
20928;SDS011;21895;47.072;15.132;2022-09-02T04:38:38;5.93;;;2.93;;
20928;SDS011;21895;47.072;15.132;2022-09-02T04:41:08;7.20;;;3.07;;
20928;SDS011;21895;47.072;15.132;2022-09-02T04:43:40;9.20;;;2.90;;
20928;SDS011;21895;47.072;15.132;2022-09-02T04:46:07;4.60;;;2.60;;
20928;SDS011;21895;47.072;15.132;2022-09-02T04:48:37;6.77;;;2.90;;
20928;SDS011;21895;47.072;15.132;2022-09-02T04:51:05;9.30;;;2.77;;
20928;SDS011;21895;47.072;15.132;2022-09-02T04:53:35;6.23;;;3.13;;
20928;SDS011;21895;47.072;15.132;2022-09-02T04:56:03;6.67;;;3.27;;
20928;SDS011;21895;47.072;15.132;2022-09-02T04:58:32;10.60;;;3.97;;
20928;SDS011;21895;47.072;15.132;2022-09-02T05:01:07;5.73;;;3.03;;
20928;SDS011;21895;47.072;15.132;2022-09-02T05:03:41;6.30;;;2.73;;
20928;SDS011;21895;47.072;15.132;2022-09-02T05:06:11;6.13;;;3.27;;
20928;SDS011;21895;47.072;15.132;2022-09-02T05:08:41;4.63;;;3.17;;
20928;SDS011;21895;47.072;15.132;2022-09-02T05:11:11;6.27;;;3.20;;
20928;SDS011;21895;47.072;15.132;2022-09-02T05:13:44;15.13;;;4.10;;
20928;SDS011;21895;47.072;15.132;2022-09-02T05:16:14;9.20;;;2.80;;
20928;SDS011;21895;47.072;15.132;2022-09-02T05:18:42;4.13;;;2.90;;
20928;SDS011;21895;47.072;15.132;2022-09-02T05:21:09;3.93;;;2.77;;
20928;SDS011;21895;47.072;15.132;2022-09-02T05:23:36;7.30;;;2.90;;
20928;SDS011;21895;47.072;15.132;2022-09-02T05:26:03;3.53;;;2.80;;
20928;SDS011;21895;47.072;15.132;2022-09-02T05:28:32;4.37;;;2.97;;
20928;SDS011;21895;47.072;15.132;2022-09-02T05:31:06;7.87;;;2.90;;
20928;SDS011;21895;47.072;15.132;2022-09-02T05:33:39;5.23;;;2.83;;
20928;SDS011;21895;47.072;15.132;2022-09-02T05:36:07;4.80;;;2.80;;
20928;SDS011;21895;47.072;15.132;2022-09-02T05:38:38;4.13;;;2.97;;
20928;SDS011;21895;47.072;15.132;2022-09-02T05:41:07;13.53;;;3.00;;
20928;SDS011;21895;47.072;15.132;2022-09-02T05:43:39;5.57;;;2.40;;
20928;SDS011;21895;47.072;15.132;2022-09-02T05:46:09;3.20;;;2.60;;
20928;SDS011;21895;47.072;15.132;2022-09-02T05:48:42;7.40;;;2.50;;
20928;SDS011;21895;47.072;15.132;2022-09-02T05:51:29;7.07;;;2.80;;
20928;SDS011;21895;47.072;15.132;2022-09-02T05:54:05;12.50;;;2.20;;
20928;SDS011;21895;47.072;15.132;2022-09-02T05:56:34;5.30;;;2.20;;
20928;SDS011;21895;47.072;15.132;2022-09-02T05:59:10;5.13;;;2.50;;
20928;SDS011;21895;47.072;15.132;2022-09-02T06:01:37;3.60;;;2.25;;
20928;SDS011;21895;47.072;15.132;2022-09-02T06:04:04;9.90;;;2.30;;
20928;SDS011;21895;47.072;15.132;2022-09-02T06:06:32;5.95;;;2.22;;
20928;SDS011;21895;47.072;15.132;2022-09-02T06:09:03;13.38;;;2.35;;
20928;SDS011;21895;47.072;15.132;2022-09-02T06:11:33;6.15;;;2.10;;
20928;SDS011;21895;47.072;15.132;2022-09-02T06:14:07;10.70;;;2.67;;
20928;SDS011;21895;47.072;15.132;2022-09-02T06:16:34;2.33;;;1.85;;
20928;SDS011;21895;47.072;15.132;2022-09-02T06:19:02;3.22;;;2.08;;
20928;SDS011;21895;47.072;15.132;2022-09-02T06:21:29;6.40;;;1.80;;
20928;SDS011;21895;47.072;15.132;2022-09-02T06:23:57;8.48;;;2.00;;
20928;SDS011;21895;47.072;15.132;2022-09-02T06:26:25;3.30;;;1.75;;
20928;SDS011;21895;47.072;15.132;2022-09-02T06:28:51;4.55;;;2.22;;
20928;SDS011;21895;47.072;15.132;2022-09-02T06:31:19;6.72;;;2.17;;
20928;SDS011;21895;47.072;15.132;2022-09-02T06:33:49;6.37;;;2.10;;
20928;SDS011;21895;47.072;15.132;2022-09-02T06:36:19;3.97;;;1.83;;
20928;SDS011;21895;47.072;15.132;2022-09-02T06:38:54;1.98;;;1.77;;
20928;SDS011;21895;47.072;15.132;2022-09-02T06:41:27;4.55;;;1.83;;
20928;SDS011;21895;47.072;15.132;2022-09-02T06:43:58;4.62;;;1.90;;
20928;SDS011;21895;47.072;15.132;2022-09-02T06:46:30;2.67;;;1.70;;
20928;SDS011;21895;47.072;15.132;2022-09-02T06:49:00;2.97;;;1.70;;
20928;SDS011;21895;47.072;15.132;2022-09-02T06:51:30;5.45;;;1.80;;
20928;SDS011;21895;47.072;15.132;2022-09-02T06:54:07;4.43;;;1.70;;
20928;SDS011;21895;47.072;15.132;2022-09-02T06:56:39;1.77;;;1.40;;
20928;SDS011;21895;47.072;15.132;2022-09-02T06:59:12;1.83;;;1.62;;
20928;SDS011;21895;47.072;15.132;2022-09-02T07:01:38;5.18;;;2.00;;
20928;SDS011;21895;47.072;15.132;2022-09-02T07:04:05;6.85;;;1.92;;
20928;SDS011;21895;47.072;15.132;2022-09-02T07:06:52;9.00;;;1.70;;
20928;SDS011;21895;47.072;15.132;2022-09-02T07:09:22;2.47;;;1.62;;
20928;SDS011;21895;47.072;15.132;2022-09-02T07:11:56;7.00;;;1.70;;
20928;SDS011;21895;47.072;15.132;2022-09-02T07:14:30;2.58;;;1.70;;
20928;SDS011;21895;47.072;15.132;2022-09-02T07:17:05;5.22;;;1.70;;
20928;SDS011;21895;47.072;15.132;2022-09-02T07:19:34;6.68;;;2.03;;
20928;SDS011;21895;47.072;15.132;2022-09-02T07:22:02;4.45;;;1.90;;
20928;SDS011;21895;47.072;15.132;2022-09-02T07:24:30;1.85;;;1.70;;
20928;SDS011;21895;47.072;15.132;2022-09-02T07:26:57;1.85;;;1.67;;
20928;SDS011;21895;47.072;15.132;2022-09-02T07:29:24;3.20;;;1.58;;
20928;SDS011;21895;47.072;15.132;2022-09-02T07:31:51;2.75;;;1.48;;
20928;SDS011;21895;47.072;15.132;2022-09-02T07:34:18;2.78;;;1.80;;
20928;SDS011;21895;47.072;15.132;2022-09-02T07:36:45;2.55;;;1.70;;
20928;SDS011;21895;47.072;15.132;2022-09-02T07:39:14;1.98;;;1.58;;
20928;SDS011;21895;47.072;15.132;2022-09-02T07:41:46;2.50;;;2.00;;
20928;SDS011;21895;47.072;15.132;2022-09-02T07:44:16;4.53;;;1.90;;
20928;SDS011;21895;47.072;15.132;2022-09-02T07:46:45;6.47;;;2.17;;
20928;SDS011;21895;47.072;15.132;2022-09-02T07:49:12;2.15;;;1.65;;
20928;SDS011;21895;47.072;15.132;2022-09-02T07:51:41;3.70;;;1.75;;
20928;SDS011;21895;47.072;15.132;2022-09-02T07:54:13;1.60;;;1.50;;
20928;SDS011;21895;47.072;15.132;2022-09-02T07:56:43;3.78;;;1.45;;
20928;SDS011;21895;47.072;15.132;2022-09-02T07:59:10;12.40;;;2.00;;
20928;SDS011;21895;47.072;15.132;2022-09-02T08:01:36;3.80;;;1.70;;
20928;SDS011;21895;47.072;15.132;2022-09-02T08:04:04;2.30;;;1.50;;
20928;SDS011;21895;47.072;15.132;2022-09-02T08:06:32;3.62;;;1.48;;
20928;SDS011;21895;47.072;15.132;2022-09-02T08:09:02;3.08;;;1.50;;
20928;SDS011;21895;47.072;15.132;2022-09-02T08:11:31;6.75;;;1.58;;
20928;SDS011;21895;47.072;15.132;2022-09-02T08:13:59;4.37;;;1.70;;
20928;SDS011;21895;47.072;15.132;2022-09-02T08:16:26;1.95;;;1.40;;
20928;SDS011;21895;47.072;15.132;2022-09-02T08:18:53;1.85;;;1.62;;
20928;SDS011;21895;47.072;15.132;2022-09-02T08:21:20;6.15;;;1.65;;
20928;SDS011;21895;47.072;15.132;2022-09-02T08:23:46;1.65;;;1.40;;
20928;SDS011;21895;47.072;15.132;2022-09-02T08:26:16;3.78;;;1.35;;
20928;SDS011;21895;47.072;15.132;2022-09-02T08:28:43;1.40;;;1.30;;
20928;SDS011;21895;47.072;15.132;2022-09-02T08:31:10;7.60;;;1.70;;
20928;SDS011;21895;47.072;15.132;2022-09-02T08:33:36;3.40;;;1.40;;
20928;SDS011;21895;47.072;15.132;2022-09-02T08:36:04;1.62;;;1.48;;
20928;SDS011;21895;47.072;15.132;2022-09-02T08:38:36;3.37;;;1.52;;
20928;SDS011;21895;47.072;15.132;2022-09-02T08:41:25;5.00;;;1.75;;
20928;SDS011;21895;47.072;15.132;2022-09-02T08:44:03;1.65;;;1.40;;
20928;SDS011;21895;47.072;15.132;2022-09-02T08:46:32;1.62;;;1.48;;
20928;SDS011;21895;47.072;15.132;2022-09-02T08:49:03;2.00;;;1.33;;
20928;SDS011;21895;47.072;15.132;2022-09-02T08:51:51;2.60;;;1.42;;
20928;SDS011;21895;47.072;15.132;2022-09-02T08:54:45;1.55;;;1.40;;
20928;SDS011;21895;47.072;15.132;2022-09-02T08:57:20;4.10;;;1.80;;
20928;SDS011;21895;47.072;15.132;2022-09-02T08:59:55;1.55;;;1.40;;
20928;SDS011;21895;47.072;15.132;2022-09-02T09:02:38;1.35;;;1.20;;
20928;SDS011;21895;47.072;15.132;2022-09-02T09:05:51;3.28;;;1.30;;
20928;SDS011;21895;47.072;15.132;2022-09-02T09:08:51;1.87;;;1.20;;
20928;SDS011;21895;47.072;15.132;2022-09-02T09:11:43;2.22;;;1.58;;
20928;SDS011;21895;47.072;15.132;2022-09-02T09:14:49;1.25;;;1.12;;
20928;SDS011;21895;47.072;15.132;2022-09-02T09:19:29;1.95;;;1.45;;
20928;SDS011;21895;47.072;15.132;2022-09-02T09:22:20;9.13;;;1.33;;
20928;SDS011;21895;47.072;15.132;2022-09-02T09:24:56;1.58;;;1.20;;
20928;SDS011;21895;47.072;15.132;2022-09-02T09:27:23;1.20;;;1.10;;
20928;SDS011;21895;47.072;15.132;2022-09-02T09:29:50;1.05;;;1.00;;
20928;SDS011;21895;47.072;15.132;2022-09-02T09:32:24;23.15;;;2.78;;
20928;SDS011;21895;47.072;15.132;2022-09-02T09:34:59;1.10;;;1.00;;
20928;SDS011;21895;47.072;15.132;2022-09-02T09:37:38;4.40;;;1.15;;
20928;SDS011;21895;47.072;15.132;2022-09-02T09:40:24;1.65;;;1.25;;
20928;SDS011;21895;47.072;15.132;2022-09-02T09:45:43;2.42;;;1.52;;
20928;SDS011;21895;47.072;15.132;2022-09-02T09:48:22;2.05;;;1.40;;
20928;SDS011;21895;47.072;15.132;2022-09-02T09:53:43;1.55;;;1.40;;
20928;SDS011;21895;47.072;15.132;2022-09-02T09:59:03;1.60;;;1.10;;
20928;SDS011;21895;47.072;15.132;2022-09-02T10:01:54;2.33;;;1.60;;
20928;SDS011;21895;47.072;15.132;2022-09-02T10:04:30;1.40;;;1.30;;
20928;SDS011;21895;47.072;15.132;2022-09-02T10:07:09;3.83;;;1.30;;
20928;SDS011;21895;47.072;15.132;2022-09-02T10:09:37;1.87;;;1.60;;
20928;SDS011;21895;47.072;15.132;2022-09-02T10:12:10;2.55;;;1.42;;
20928;SDS011;21895;47.072;15.132;2022-09-02T10:14:44;1.70;;;1.60;;
20928;SDS011;21895;47.072;15.132;2022-09-02T10:17:35;3.45;;;1.30;;
20928;SDS011;21895;47.072;15.132;2022-09-02T10:27:13;2.78;;;1.25;;
20928;SDS011;21895;47.072;15.132;2022-09-02T10:30:54;1.92;;;1.33;;
20928;SDS011;21895;47.072;15.132;2022-09-02T10:38:03;5.57;;;1.58;;
20928;SDS011;21895;47.072;15.132;2022-09-02T10:44:25;1.83;;;1.60;;
20928;SDS011;21895;47.072;15.132;2022-09-02T10:50:33;2.58;;;1.52;;
20928;SDS011;21895;47.072;15.132;2022-09-02T10:53:42;3.42;;;1.42;;
20928;SDS011;21895;47.072;15.132;2022-09-02T10:59:11;6.80;;;1.65;;
20928;SDS011;21895;47.072;15.132;2022-09-02T11:01:56;5.20;;;1.60;;
20928;SDS011;21895;47.072;15.132;2022-09-02T11:07:40;2.85;;;1.45;;
20928;SDS011;21895;47.072;15.132;2022-09-02T11:10:25;2.78;;;1.70;;
20928;SDS011;21895;47.072;15.132;2022-09-02T11:13:16;1.58;;;1.48;;
20928;SDS011;21895;47.072;15.132;2022-09-02T11:16:08;1.90;;;1.40;;
20928;SDS011;21895;47.072;15.132;2022-09-02T11:25:15;2.83;;;1.35;;
20928;SDS011;21895;47.072;15.132;2022-09-02T11:28:02;1.90;;;1.62;;
20928;SDS011;21895;47.072;15.132;2022-09-02T11:32:55;5.82;;;1.67;;
20928;SDS011;21895;47.072;15.132;2022-09-02T11:35:45;2.83;;;1.42;;
20928;SDS011;21895;47.072;15.132;2022-09-02T11:57:28;2.03;;;1.60;;
20928;SDS011;21895;47.072;15.132;2022-09-02T12:00:01;3.85;;;1.60;;
20928;SDS011;21895;47.072;15.132;2022-09-02T12:02:45;6.32;;;1.67;;
20928;SDS011;21895;47.072;15.132;2022-09-02T12:11:58;2.00;;;1.80;;
20928;SDS011;21895;47.072;15.132;2022-09-02T12:19:27;2.20;;;1.70;;
20928;SDS011;21895;47.072;15.132;2022-09-02T12:30:02;5.53;;;1.70;;
20928;SDS011;21895;47.072;15.132;2022-09-02T12:40:36;4.65;;;2.10;;
20928;SDS011;21895;47.072;15.132;2022-09-02T12:43:27;3.15;;;1.67;;
20928;SDS011;21895;47.072;15.132;2022-09-02T12:46:26;2.92;;;1.50;;
20928;SDS011;21895;47.072;15.132;2022-09-02T12:49:27;2.10;;;1.60;;
20928;SDS011;21895;47.072;15.132;2022-09-02T12:52:11;3.12;;;1.60;;
20928;SDS011;21895;47.072;15.132;2022-09-02T12:55:27;5.65;;;1.58;;
20928;SDS011;21895;47.072;15.132;2022-09-02T12:58:09;2.62;;;1.50;;
20928;SDS011;21895;47.072;15.132;2022-09-02T13:00:59;1.62;;;1.52;;
20928;SDS011;21895;47.072;15.132;2022-09-02T13:06:33;1.52;;;1.40;;
20928;SDS011;21895;47.072;15.132;2022-09-02T13:10:44;6.53;;;1.70;;
20928;SDS011;21895;47.072;15.132;2022-09-02T13:19:11;5.60;;;1.65;;
20928;SDS011;21895;47.072;15.132;2022-09-02T13:23:58;2.22;;;1.70;;
20928;SDS011;21895;47.072;15.132;2022-09-02T13:28:39;1.98;;;1.70;;
20928;SDS011;21895;47.072;15.132;2022-09-02T13:31:58;8.43;;;1.80;;
20928;SDS011;21895;47.072;15.132;2022-09-02T13:34:29;6.72;;;1.92;;
20928;SDS011;21895;47.072;15.132;2022-09-02T13:36:56;4.40;;;1.70;;
20928;SDS011;21895;47.072;15.132;2022-09-02T13:39:26;1.87;;;1.55;;
20928;SDS011;21895;47.072;15.132;2022-09-02T13:41:53;2.60;;;1.60;;
20928;SDS011;21895;47.072;15.132;2022-09-02T13:44:26;2.17;;;1.60;;
20928;SDS011;21895;47.072;15.132;2022-09-02T13:47:01;4.05;;;1.83;;
20928;SDS011;21895;47.072;15.132;2022-09-02T13:49:46;2.20;;;1.52;;
20928;SDS011;21895;47.072;15.132;2022-09-02T13:52:18;4.72;;;1.70;;
20928;SDS011;21895;47.072;15.132;2022-09-02T13:55:37;5.35;;;1.70;;
20928;SDS011;21895;47.072;15.132;2022-09-02T13:58:19;2.78;;;1.50;;
20928;SDS011;21895;47.072;15.132;2022-09-02T14:04:06;1.90;;;1.73;;
20928;SDS011;21895;47.072;15.132;2022-09-02T14:06:43;4.75;;;1.80;;
20928;SDS011;21895;47.072;15.132;2022-09-02T14:09:26;2.58;;;1.70;;
20928;SDS011;21895;47.072;15.132;2022-09-02T14:11:58;5.40;;;1.77;;
20928;SDS011;21895;47.072;15.132;2022-09-02T14:14:26;1.87;;;1.50;;
20928;SDS011;21895;47.072;15.132;2022-09-02T14:19:48;2.25;;;1.52;;
20928;SDS011;21895;47.072;15.132;2022-09-02T14:22:36;3.05;;;1.70;;
20928;SDS011;21895;47.072;15.132;2022-09-02T14:25:08;1.95;;;1.67;;
20928;SDS011;21895;47.072;15.132;2022-09-02T14:27:47;1.67;;;1.45;;
20928;SDS011;21895;47.072;15.132;2022-09-02T14:30:38;7.47;;;2.17;;
20928;SDS011;21895;47.072;15.132;2022-09-02T14:37:48;6.25;;;1.60;;
20928;SDS011;21895;47.072;15.132;2022-09-02T14:40:30;6.53;;;1.50;;
20928;SDS011;21895;47.072;15.132;2022-09-02T14:43:11;5.80;;;1.60;;
20928;SDS011;21895;47.072;15.132;2022-09-02T14:45:45;3.35;;;1.73;;
20928;SDS011;21895;47.072;15.132;2022-09-02T14:48:21;3.37;;;1.55;;
20928;SDS011;21895;47.072;15.132;2022-09-02T14:50:57;4.68;;;1.60;;
20928;SDS011;21895;47.072;15.132;2022-09-02T14:53:29;8.38;;;1.33;;
20928;SDS011;21895;47.072;15.132;2022-09-02T14:55:57;2.67;;;1.60;;
20928;SDS011;21895;47.072;15.132;2022-09-02T14:58:25;4.30;;;1.77;;
20928;SDS011;21895;47.072;15.132;2022-09-02T15:00:54;3.85;;;1.50;;
20928;SDS011;21895;47.072;15.132;2022-09-02T15:03:24;4.62;;;1.40;;
20928;SDS011;21895;47.072;15.132;2022-09-02T15:05:53;4.22;;;1.50;;
20928;SDS011;21895;47.072;15.132;2022-09-02T15:08:20;8.18;;;1.60;;
20928;SDS011;21895;47.072;15.132;2022-09-02T15:10:47;2.10;;;1.58;;
20928;SDS011;21895;47.072;15.132;2022-09-02T15:13:20;7.07;;;1.75;;
20928;SDS011;21895;47.072;15.132;2022-09-02T15:15:58;5.28;;;1.30;;
20928;SDS011;21895;47.072;15.132;2022-09-02T15:18:25;3.08;;;1.85;;
20928;SDS011;21895;47.072;15.132;2022-09-02T15:20:53;12.30;;;1.80;;
20928;SDS011;21895;47.072;15.132;2022-09-02T15:23:20;2.28;;;1.60;;
20928;SDS011;21895;47.072;15.132;2022-09-02T15:25:47;7.12;;;1.40;;
20928;SDS011;21895;47.072;15.132;2022-09-02T15:28:13;4.25;;;1.75;;
20928;SDS011;21895;47.072;15.132;2022-09-02T15:30:40;1.80;;;1.50;;
20928;SDS011;21895;47.072;15.132;2022-09-02T15:33:07;3.50;;;1.60;;
20928;SDS011;21895;47.072;15.132;2022-09-02T15:35:43;3.40;;;1.27;;
20928;SDS011;21895;47.072;15.132;2022-09-02T15:38:11;2.83;;;1.48;;
20928;SDS011;21895;47.072;15.132;2022-09-02T15:40:38;2.58;;;1.50;;
20928;SDS011;21895;47.072;15.132;2022-09-02T15:43:04;3.80;;;1.65;;
20928;SDS011;21895;47.072;15.132;2022-09-02T15:45:31;4.82;;;1.52;;
20928;SDS011;21895;47.072;15.132;2022-09-02T15:47:59;2.58;;;1.40;;
20928;SDS011;21895;47.072;15.132;2022-09-02T15:50:26;3.28;;;1.60;;
20928;SDS011;21895;47.072;15.132;2022-09-02T15:52:59;1.73;;;1.45;;
20928;SDS011;21895;47.072;15.132;2022-09-02T15:55:26;3.70;;;1.70;;
20928;SDS011;21895;47.072;15.132;2022-09-02T15:57:54;8.25;;;1.92;;
20928;SDS011;21895;47.072;15.132;2022-09-02T16:00:21;2.97;;;1.60;;
20928;SDS011;21895;47.072;15.132;2022-09-02T16:02:53;2.05;;;1.80;;
20928;SDS011;21895;47.072;15.132;2022-09-02T16:05:21;6.57;;;1.83;;
20928;SDS011;21895;47.072;15.132;2022-09-02T16:07:48;7.03;;;1.62;;
20928;SDS011;21895;47.072;15.132;2022-09-02T16:10:16;4.68;;;1.70;;
20928;SDS011;21895;47.072;15.132;2022-09-02T16:12:43;1.98;;;1.70;;
20928;SDS011;21895;47.072;15.132;2022-09-02T16:15:09;6.95;;;1.90;;
20928;SDS011;21895;47.072;15.132;2022-09-02T16:17:36;3.50;;;1.70;;
20928;SDS011;21895;47.072;15.132;2022-09-02T16:20:03;1.85;;;1.60;;
20928;SDS011;21895;47.072;15.132;2022-09-02T16:22:30;9.15;;;1.83;;
20928;SDS011;21895;47.072;15.132;2022-09-02T16:24:56;3.65;;;1.83;;
20928;SDS011;21895;47.072;15.132;2022-09-02T16:27:23;5.40;;;2.22;;
20928;SDS011;21895;47.072;15.132;2022-09-02T16:30:08;8.85;;;1.85;;
20928;SDS011;21895;47.072;15.132;2022-09-02T16:32:35;3.15;;;1.62;;
20928;SDS011;21895;47.072;15.132;2022-09-02T16:35:02;3.05;;;1.85;;
20928;SDS011;21895;47.072;15.132;2022-09-02T16:37:29;3.33;;;2.00;;
20928;SDS011;21895;47.072;15.132;2022-09-02T16:39:55;3.47;;;1.95;;
20928;SDS011;21895;47.072;15.132;2022-09-02T16:42:22;4.20;;;1.87;;
20928;SDS011;21895;47.072;15.132;2022-09-02T16:44:50;3.83;;;2.10;;
20928;SDS011;21895;47.072;15.132;2022-09-02T16:47:17;2.00;;;1.80;;
20928;SDS011;21895;47.072;15.132;2022-09-02T16:49:43;4.65;;;1.55;;
20928;SDS011;21895;47.072;15.132;2022-09-02T16:52:10;2.10;;;1.73;;
20928;SDS011;21895;47.072;15.132;2022-09-02T16:54:37;5.75;;;2.20;;
20928;SDS011;21895;47.072;15.132;2022-09-02T16:57:06;3.37;;;2.05;;
20928;SDS011;21895;47.072;15.132;2022-09-02T16:59:33;7.37;;;2.45;;
20928;SDS011;21895;47.072;15.132;2022-09-02T17:02:00;2.22;;;1.75;;